createdAt,value
2018-10-04T00:01:38.606Z,56.69
2018-10-04T00:04:07.530Z,56.38
2018-10-04T00:06:36.297Z,56.56
2018-10-04T00:09:05.933Z,56.56
2018-10-04T00:11:34.690Z,56.90
2018-10-04T00:14:03.464Z,57.27
2018-10-04T00:16:32.415Z,57.75
2018-10-04T00:19:01.220Z,57.58
2018-10-04T00:21:30.070Z,57.88
2018-10-04T00:23:58.770Z,57.78
2018-10-04T00:26:27.505Z,58.69
2018-10-04T00:28:56.298Z,58.74
2018-10-04T00:31:25.069Z,58.08
2018-10-04T00:33:53.822Z,58.43
2018-10-04T00:36:22.536Z,57.89
2018-10-04T00:38:51.262Z,58.87
2018-10-04T00:41:20.222Z,58.60
2018-10-04T00:43:48.892Z,58.37
2018-10-04T00:46:17.621Z,57.86
2018-10-04T00:48:46.414Z,58.24
2018-10-04T00:51:15.210Z,58.22
2018-10-04T00:53:43.906Z,57.98
2018-10-04T00:56:12.638Z,58.12
2018-10-04T00:58:41.408Z,58.80
2018-10-04T01:01:10.222Z,58.35
2018-10-04T01:03:39.033Z,58.56
2018-10-04T01:06:07.773Z,58.10
2018-10-04T01:08:36.538Z,58.36
2018-10-04T01:11:05.327Z,58.72
2018-10-04T01:13:33.979Z,58.38
2018-10-04T01:16:02.663Z,57.95
2018-10-04T01:18:42.580Z,57.51
2018-10-04T01:21:11.369Z,57.46
2018-10-04T01:23:40.122Z,58.24
2018-10-04T01:26:08.767Z,59.30
2018-10-04T01:28:37.605Z,59.07
2018-10-04T01:31:06.333Z,59.66
2018-10-04T01:33:35.081Z,60.20
2018-10-04T01:36:03.877Z,60.31
2018-10-04T01:38:32.806Z,60.72
2018-10-04T01:41:01.603Z,61.02
2018-10-04T01:43:30.274Z,61.65
2018-10-04T01:45:59.114Z,61.70
2018-10-04T01:48:27.905Z,62.41
2018-10-04T01:50:56.710Z,62.80
2018-10-04T01:53:25.481Z,63.23
2018-10-04T01:55:54.638Z,63.83
2018-10-04T01:58:23.556Z,63.52
2018-10-04T02:00:52.249Z,63.98
2018-10-04T02:03:21.190Z,64.34
2018-10-04T02:05:49.866Z,64.31
2018-10-04T02:08:18.573Z,64.52
2018-10-04T02:10:47.385Z,64.94
2018-10-04T02:13:16.353Z,64.82
2018-10-04T02:15:45.060Z,64.85
2018-10-04T02:18:13.771Z,65.25
2018-10-04T02:20:42.465Z,65.46
2018-10-04T02:23:11.222Z,65.53
2018-10-04T02:25:39.950Z,65.77
2018-10-04T02:28:08.696Z,66.41
2018-10-04T02:30:37.479Z,66.65
2018-10-04T02:33:06.201Z,65.96
2018-10-04T02:35:34.904Z,66.14
2018-10-04T02:38:03.582Z,66.32
2018-10-04T02:40:32.333Z,66.24
2018-10-04T02:43:01.021Z,66.81
2018-10-04T02:45:29.683Z,66.96
2018-10-04T02:47:58.316Z,67.23
2018-10-04T02:50:27.127Z,67.42
2018-10-04T02:52:55.877Z,67.59
2018-10-04T02:55:29.776Z,67.48
2018-10-04T02:57:58.585Z,67.79
2018-10-04T03:00:27.347Z,67.74
2018-10-04T03:02:56.095Z,67.79
2018-10-04T03:05:24.709Z,67.22
2018-10-04T03:07:53.391Z,67.46
2018-10-04T03:10:22.032Z,66.99
2018-10-04T03:12:51.546Z,67.24
2018-10-04T03:15:20.236Z,67.12
2018-10-04T03:17:48.957Z,66.61
2018-10-04T03:20:17.726Z,66.74
2018-10-04T03:22:46.516Z,66.71
2018-10-04T03:25:15.194Z,66.68
2018-10-04T03:27:43.869Z,67.21
2018-10-04T03:30:12.702Z,67.01
2018-10-04T03:32:41.407Z,67.01
2018-10-04T03:35:10.119Z,66.90
2018-10-04T03:37:38.913Z,66.36
2018-10-04T03:40:07.667Z,66.96
2018-10-04T03:42:36.416Z,67.30
2018-10-04T03:45:05.287Z,67.12
2018-10-04T03:47:34.033Z,66.74
2018-10-04T03:50:02.745Z,67.11
2018-10-04T03:52:31.396Z,67.14
2018-10-04T03:55:00.101Z,67.20
2018-10-04T03:57:28.757Z,67.48
2018-10-04T03:59:57.630Z,67.64
2018-10-04T04:02:26.710Z,67.54
2018-10-04T04:04:55.422Z,67.33
2018-10-04T04:07:24.129Z,67.63
2018-10-04T04:09:52.913Z,67.89
2018-10-04T04:12:21.817Z,67.45
2018-10-04T04:14:50.634Z,67.27
2018-10-04T04:17:19.308Z,67.21
2018-10-04T04:19:48.069Z,67.01
2018-10-04T04:22:17.022Z,67.50
2018-10-04T04:24:45.644Z,67.64
2018-10-04T04:27:14.382Z,67.78
2018-10-04T04:29:43.020Z,67.17
2018-10-04T04:32:11.689Z,67.16
2018-10-04T04:34:40.393Z,67.23
2018-10-04T04:37:09.203Z,67.66
2018-10-04T04:39:37.882Z,67.84
2018-10-04T04:42:06.598Z,67.99
2018-10-04T04:44:35.422Z,67.54
2018-10-04T04:47:04.128Z,67.60
2018-10-04T04:49:32.906Z,67.05
2018-10-04T04:52:01.661Z,66.55
2018-10-04T04:55:40.492Z,65.87
2018-10-04T04:58:10.474Z,64.74
2018-10-04T05:00:40.517Z,62.82
2018-10-04T05:03:09.340Z,62.19
2018-10-04T05:05:38.155Z,61.77
2018-10-04T05:08:08.082Z,61.87
2018-10-04T05:10:37.245Z,60.00
2018-10-04T05:13:06.771Z,58.36
2018-10-04T05:15:35.405Z,58.00
2018-10-04T05:18:04.188Z,56.14
2018-10-04T05:20:32.942Z,54.20
2018-10-04T05:23:01.696Z,54.29
2018-10-04T05:25:30.485Z,52.82
2018-10-04T05:27:59.295Z,52.59
2018-10-04T05:30:28.009Z,52.89
2018-10-04T05:32:56.754Z,52.32
2018-10-04T05:35:25.420Z,51.20
2018-10-04T05:37:54.122Z,51.03
2018-10-04T05:40:22.990Z,51.13
2018-10-04T05:42:51.698Z,50.28
2018-10-04T05:45:20.415Z,50.13
2018-10-04T05:47:49.148Z,50.05
2018-10-04T05:50:17.930Z,49.92
2018-10-04T05:52:47.031Z,50.61
2018-10-04T05:55:15.813Z,49.27
2018-10-04T05:57:44.548Z,48.30
2018-10-04T06:00:33.085Z,47.53
2018-10-04T06:03:01.872Z,47.70
2018-10-04T06:05:30.799Z,47.85
2018-10-04T06:07:59.719Z,47.02
2018-10-04T06:10:28.469Z,47.30
2018-10-04T06:12:57.218Z,46.10
2018-10-04T06:15:25.962Z,45.25
2018-10-04T06:17:54.646Z,45.37
2018-10-04T06:20:23.523Z,45.54
2018-10-04T06:22:52.323Z,44.61
2018-10-04T06:25:21.163Z,44.45
2018-10-04T06:27:49.833Z,43.77
2018-10-04T06:30:18.670Z,44.15
2018-10-04T06:32:47.528Z,43.19
2018-10-04T06:35:16.305Z,43.60
2018-10-04T06:37:45.115Z,43.95
2018-10-04T06:40:13.841Z,44.20
2018-10-04T06:42:42.854Z,43.83
2018-10-04T06:45:11.584Z,43.93
2018-10-04T06:47:40.252Z,43.14
2018-10-04T06:50:09.026Z,42.38
2018-10-04T06:52:37.736Z,41.84
2018-10-04T06:55:06.550Z,41.46
2018-10-04T06:57:35.317Z,40.79
2018-10-04T07:00:06.087Z,40.69
2018-10-04T07:02:34.820Z,40.88
2018-10-04T07:05:03.629Z,40.27
2018-10-04T07:07:32.340Z,39.82
2018-10-04T07:10:01.040Z,38.31
2018-10-04T07:12:29.794Z,38.58
2018-10-04T07:14:58.509Z,39.34
2018-10-04T07:17:27.174Z,38.72
2018-10-04T07:19:55.813Z,38.26
2018-10-04T07:22:24.598Z,37.88
2018-10-04T07:24:53.374Z,36.83
2018-10-04T07:27:22.118Z,37.18
2018-10-04T07:29:50.849Z,37.35
2018-10-04T07:32:19.662Z,36.82
2018-10-04T07:34:48.457Z,36.76
2018-10-04T07:37:17.451Z,36.10
2018-10-04T07:39:46.066Z,36.58
2018-10-04T07:42:14.938Z,37.30
2018-10-04T07:44:43.567Z,36.73
2018-10-04T07:47:12.236Z,36.63
2018-10-04T07:49:40.953Z,37.15
2018-10-04T07:52:09.684Z,36.03
2018-10-04T07:54:38.413Z,35.00
2018-10-04T07:57:07.145Z,34.29
2018-10-04T07:59:35.896Z,33.72
2018-10-04T08:02:04.558Z,33.52
2018-10-04T08:04:33.337Z,34.07
2018-10-04T08:07:02.153Z,32.84
2018-10-04T08:09:30.874Z,33.69
2018-10-04T08:11:59.646Z,34.31
2018-10-04T08:14:28.386Z,36.03
2018-10-04T08:16:57.157Z,35.67
2018-10-04T08:19:26.106Z,35.69
2018-10-04T08:21:54.830Z,35.45
2018-10-04T08:24:23.591Z,32.53
2018-10-04T08:26:52.333Z,32.81
2018-10-04T08:29:21.061Z,32.84
2018-10-04T08:31:49.773Z,32.06
2018-10-04T08:34:18.591Z,30.88
2018-10-04T08:36:47.303Z,30.19
2018-10-04T08:39:15.961Z,30.64
2018-10-04T08:41:44.661Z,30.91
2018-10-04T08:44:13.347Z,31.31
2018-10-04T08:46:42.000Z,31.00
2018-10-04T08:49:10.806Z,30.84
2018-10-04T08:51:44.692Z,31.41
2018-10-04T08:54:13.580Z,30.93
2018-10-04T08:56:42.398Z,31.19
2018-10-04T08:59:11.137Z,29.98
2018-10-04T09:01:39.980Z,30.16
2018-10-04T09:04:08.763Z,30.36
2018-10-04T09:06:37.522Z,29.95
2018-10-04T09:09:07.358Z,30.88
2018-10-04T09:11:36.153Z,31.56
2018-10-04T09:14:04.942Z,31.06
2018-10-04T09:16:33.742Z,30.28
2018-10-04T09:19:02.620Z,30.94
2018-10-04T09:21:31.486Z,30.39
2018-10-04T09:24:00.262Z,30.12
2018-10-04T09:26:29.075Z,30.49
2018-10-04T09:29:17.121Z,28.57
2018-10-04T09:31:47.155Z,29.63
2018-10-04T09:34:15.869Z,30.41
2018-10-04T09:36:44.617Z,31.50
2018-10-04T09:39:13.428Z,31.24
2018-10-04T09:41:42.294Z,29.93
2018-10-04T09:44:11.142Z,30.26
2018-10-04T09:46:39.994Z,29.86
2018-10-04T09:49:08.870Z,29.12
2018-10-04T09:51:42.785Z,28.57
2018-10-04T09:54:15.697Z,27.49
2018-10-04T09:56:48.219Z,27.99
2018-10-04T09:59:16.949Z,28.72
2018-10-04T10:01:50.982Z,28.17
2018-10-04T10:04:19.731Z,28.67
2018-10-04T10:06:48.516Z,28.38
2018-10-04T10:09:17.406Z,29.41
2018-10-04T10:11:46.210Z,27.88
2018-10-04T10:14:14.978Z,28.49
2018-10-04T10:16:43.674Z,27.87
2018-10-04T10:19:12.398Z,27.34
2018-10-04T10:21:41.166Z,28.25
2018-10-04T10:24:09.931Z,28.53
2018-10-04T10:26:38.606Z,27.97
2018-10-04T10:29:07.716Z,28.76
2018-10-04T10:31:36.537Z,28.29
2018-10-04T10:34:05.291Z,27.35
2018-10-04T10:36:33.982Z,26.68
2018-10-04T10:39:02.797Z,25.94
2018-10-04T10:41:31.560Z,27.65
2018-10-04T10:44:00.371Z,28.60
2018-10-04T10:46:29.111Z,27.90
2018-10-04T10:48:57.819Z,28.14
2018-10-04T10:51:26.544Z,27.50
2018-10-04T10:53:55.295Z,26.64
2018-10-04T10:56:24.220Z,26.87
2018-10-04T10:58:53.012Z,26.38
2018-10-04T11:01:21.839Z,25.89
2018-10-04T11:03:50.596Z,25.97
2018-10-04T11:06:19.405Z,26.10
2018-10-04T11:08:48.154Z,26.03
2018-10-04T11:11:16.972Z,26.29
2018-10-04T11:13:45.706Z,26.78
2018-10-04T11:16:14.559Z,25.81
2018-10-04T11:18:43.319Z,25.97
2018-10-04T11:21:12.160Z,25.96
2018-10-04T11:23:40.860Z,26.11
2018-10-04T11:26:09.595Z,25.76
2018-10-04T11:28:38.367Z,25.72
2018-10-04T11:31:07.619Z,25.73
2018-10-04T11:33:36.459Z,25.83
2018-10-04T11:36:05.210Z,25.95
2018-10-04T11:38:34.311Z,24.98
2018-10-04T11:41:03.109Z,24.94
2018-10-04T11:43:31.929Z,25.32
2018-10-04T11:46:02.096Z,24.72
2018-10-04T11:48:32.754Z,25.66
2018-10-04T11:51:01.428Z,25.14
2018-10-04T11:53:30.106Z,24.92
2018-10-04T11:55:58.973Z,24.65
2018-10-04T11:58:27.780Z,24.61
2018-10-04T12:00:56.638Z,24.03
2018-10-04T12:03:25.451Z,23.94
2018-10-04T12:05:54.329Z,24.83
2018-10-04T12:08:23.025Z,25.32
2018-10-04T12:10:51.757Z,25.23
2018-10-04T12:13:20.542Z,24.71
2018-10-04T12:15:49.238Z,24.50
2018-10-04T12:18:17.896Z,24.37
2018-10-04T12:20:46.630Z,25.65
2018-10-04T12:23:15.473Z,25.70
2018-10-04T12:25:44.266Z,24.82
2018-10-04T12:28:12.949Z,25.58
2018-10-04T12:30:41.645Z,25.16
2018-10-04T12:33:10.377Z,25.12
2018-10-04T12:35:38.985Z,25.12
2018-10-04T12:38:07.747Z,25.37
2018-10-04T12:40:36.581Z,25.76
2018-10-04T12:43:05.363Z,26.58
2018-10-04T12:45:33.993Z,26.19
2018-10-04T12:48:02.744Z,25.43
2018-10-04T12:50:31.426Z,25.40
2018-10-04T12:53:00.085Z,26.04
2018-10-04T12:55:28.867Z,26.12
2018-10-04T12:57:57.529Z,26.56
2018-10-04T13:00:26.242Z,25.96
2018-10-04T13:02:55.010Z,26.32
2018-10-04T13:05:23.778Z,26.46
2018-10-04T13:07:52.528Z,26.81
2018-10-04T13:10:21.218Z,27.25
2018-10-04T13:12:50.011Z,27.51
2018-10-04T13:15:18.819Z,28.35
2018-10-04T13:17:47.543Z,27.28
2018-10-04T13:20:16.315Z,27.68
2018-10-04T13:22:44.962Z,27.79
2018-10-04T13:25:13.774Z,28.00
2018-10-04T13:27:42.640Z,28.45
2018-10-04T13:30:11.397Z,28.06
2018-10-04T13:32:40.064Z,28.63
2018-10-04T13:35:08.834Z,29.07
2018-10-04T13:37:37.592Z,28.94
2018-10-04T13:40:06.314Z,28.37
2018-10-04T13:42:35.037Z,28.41
2018-10-04T13:45:03.785Z,27.76
2018-10-04T13:47:32.484Z,29.35
2018-10-04T13:50:01.166Z,28.82
2018-10-04T13:52:29.831Z,28.36
2018-10-04T13:54:58.589Z,28.42
2018-10-04T13:57:27.307Z,29.14
2018-10-04T13:59:56.068Z,28.41
2018-10-04T14:02:25.024Z,28.16
2018-10-04T14:04:53.784Z,28.59
2018-10-04T14:07:22.545Z,28.25
2018-10-04T14:09:51.256Z,29.54
2018-10-04T14:12:20.039Z,28.50
2018-10-04T14:14:48.748Z,28.53
2018-10-04T14:17:17.457Z,29.41
2018-10-04T14:19:46.241Z,28.51
2018-10-04T14:22:14.993Z,28.86
2018-10-04T14:24:43.835Z,28.55
2018-10-04T14:27:12.571Z,28.74
2018-10-04T14:29:41.317Z,29.45
2018-10-04T14:32:10.073Z,29.64
2018-10-04T14:34:38.837Z,29.96
2018-10-04T14:37:07.596Z,30.15
2018-10-04T14:39:37.445Z,30.12
2018-10-04T14:42:06.193Z,30.11
2018-10-04T14:44:34.914Z,29.39
2018-10-04T14:47:03.687Z,29.65
2018-10-04T14:49:32.420Z,30.18
2018-10-04T14:52:01.281Z,29.98
2018-10-04T14:54:30.016Z,30.32
2018-10-04T14:56:58.844Z,30.29
2018-10-04T14:59:27.615Z,29.91
2018-10-04T15:01:56.364Z,30.80
2018-10-04T15:04:25.105Z,31.14
2018-10-04T15:06:53.861Z,30.63
2018-10-04T15:09:22.729Z,31.10
2018-10-04T15:11:51.453Z,31.27
2018-10-04T15:14:20.132Z,30.61
2018-10-04T15:16:48.924Z,31.04
2018-10-04T15:19:17.670Z,31.31
2018-10-04T15:21:46.508Z,32.06
2018-10-04T15:24:15.275Z,32.23
2018-10-04T15:26:44.043Z,32.03
2018-10-04T15:29:12.780Z,32.18
2018-10-04T15:31:41.443Z,32.41
2018-10-04T15:34:10.143Z,32.44
2018-10-04T15:36:38.835Z,32.61
2018-10-04T15:39:08.977Z,32.34
2018-10-04T15:41:38.005Z,31.92
2018-10-04T15:44:07.053Z,32.43
2018-10-04T15:46:35.766Z,33.16
2018-10-04T15:49:04.518Z,32.34
2018-10-04T15:51:33.364Z,33.43
2018-10-04T15:54:02.218Z,33.37
2018-10-04T15:56:31.016Z,33.79
2018-10-04T15:58:59.689Z,33.56
2018-10-04T16:01:28.434Z,33.61
2018-10-04T16:03:57.241Z,34.03
2018-10-04T16:06:25.947Z,34.03
2018-10-04T16:08:54.854Z,34.00
2018-10-04T16:11:23.560Z,34.58
2018-10-04T16:13:52.302Z,33.84
2018-10-04T16:16:21.766Z,34.99
2018-10-04T16:18:50.691Z,34.25
2018-10-04T16:21:19.557Z,35.15
2018-10-04T16:23:48.373Z,35.25
2018-10-04T16:26:17.142Z,34.81
2018-10-04T16:28:46.273Z,35.32
2018-10-04T16:31:15.074Z,36.29
2018-10-04T16:33:44.134Z,36.03
2018-10-04T16:36:13.798Z,35.98
2018-10-04T16:38:43.610Z,36.60
2018-10-04T16:41:13.688Z,36.75
2018-10-04T16:43:42.843Z,37.13
2018-10-04T16:46:11.644Z,37.47
2018-10-04T16:48:40.480Z,37.04
2018-10-04T16:51:09.292Z,37.90
2018-10-04T16:53:37.944Z,38.11
2018-10-04T16:56:06.883Z,38.19
2018-10-04T16:58:35.741Z,38.13
2018-10-04T17:01:04.535Z,38.95
2018-10-04T17:03:33.410Z,39.22
2018-10-04T17:06:02.282Z,39.15
2018-10-04T17:08:31.031Z,39.84
2018-10-04T17:10:59.767Z,39.93
2018-10-04T17:13:28.509Z,39.63
2018-10-04T17:15:57.292Z,39.87
2018-10-04T17:18:25.985Z,40.23
2018-10-04T17:20:54.709Z,39.89
2018-10-04T17:23:23.461Z,40.29
2018-10-04T17:25:52.305Z,40.13
2018-10-04T17:28:21.063Z,40.56
2018-10-04T17:30:49.788Z,40.62
2018-10-04T17:33:18.535Z,41.34
2018-10-04T17:35:47.306Z,41.48
2018-10-04T17:38:16.068Z,41.16
2018-10-04T17:40:45.173Z,41.40
2018-10-04T17:43:13.900Z,41.94
2018-10-04T17:45:42.607Z,41.25
2018-10-04T17:48:11.304Z,41.62
2018-10-04T17:50:40.067Z,42.23
2018-10-04T17:53:08.798Z,42.46
2018-10-04T17:55:37.557Z,42.32
2018-10-04T17:58:06.377Z,42.48
2018-10-04T18:00:35.233Z,42.50
2018-10-04T18:03:04.034Z,42.37
2018-10-04T18:05:32.784Z,43.06
2018-10-04T18:08:01.590Z,42.60
2018-10-04T18:10:30.438Z,43.66
2018-10-04T18:12:59.154Z,43.16
2018-10-04T18:15:27.956Z,43.35
2018-10-04T18:17:56.686Z,43.47
2018-10-04T18:20:25.429Z,44.12
2018-10-04T18:22:54.194Z,44.23
2018-10-04T18:25:22.881Z,43.58
2018-10-04T18:27:51.554Z,43.81
2018-10-04T18:30:20.382Z,44.55
2018-10-04T18:32:49.050Z,44.51
2018-10-04T18:35:17.826Z,44.63
2018-10-04T18:37:46.509Z,44.88
2018-10-04T18:40:15.241Z,44.86
2018-10-04T18:42:45.053Z,44.80
2018-10-04T18:45:13.863Z,45.48
2018-10-04T18:47:42.557Z,44.94
2018-10-04T18:50:11.299Z,45.23
2018-10-04T18:52:40.092Z,45.47
2018-10-04T18:55:08.799Z,45.82
2018-10-04T18:57:37.724Z,46.04
2018-10-04T19:00:09.562Z,46.10
2018-10-04T19:02:38.341Z,46.74
2018-10-04T19:05:07.193Z,46.84
2018-10-04T19:07:35.984Z,47.33
2018-10-04T19:10:04.874Z,47.11
2018-10-04T19:12:33.626Z,47.68
2018-10-04T19:15:02.334Z,46.95
2018-10-04T19:17:31.035Z,46.94
2018-10-04T19:19:59.745Z,47.00
2018-10-04T19:22:28.421Z,47.19
2018-10-04T19:24:57.125Z,47.92
2018-10-04T19:27:25.946Z,47.90
2018-10-04T19:29:54.649Z,48.34
2018-10-04T19:32:23.465Z,48.55
2018-10-04T19:34:52.193Z,48.16
2018-10-04T19:37:21.097Z,49.11
2018-10-04T19:39:49.787Z,49.03
2018-10-04T19:42:18.662Z,49.83
2018-10-04T19:44:47.496Z,49.49
2018-10-04T19:47:16.267Z,50.89
2018-10-04T19:49:44.953Z,50.52
2018-10-04T19:52:13.686Z,50.73
2018-10-04T19:54:42.571Z,49.89
2018-10-04T19:57:11.271Z,49.67
2018-10-04T19:59:40.039Z,49.98
2018-10-04T20:02:08.730Z,50.11
2018-10-04T20:04:37.426Z,50.53
2018-10-04T20:07:06.282Z,50.94
2018-10-04T20:09:35.121Z,51.25
2018-10-04T20:12:03.879Z,51.42
2018-10-04T20:14:32.653Z,51.80
2018-10-04T20:17:01.357Z,51.32
2018-10-04T20:19:30.082Z,51.39
2018-10-04T20:21:58.847Z,51.45
2018-10-04T20:24:27.566Z,51.60
2018-10-04T20:26:56.398Z,52.15
2018-10-04T20:29:25.104Z,51.44
2018-10-04T20:31:53.761Z,51.08
2018-10-04T20:34:22.469Z,51.05
2018-10-04T20:36:51.202Z,51.91
2018-10-04T20:39:19.974Z,51.75
2018-10-04T20:41:48.773Z,52.54
2018-10-04T20:44:17.522Z,52.25
2018-10-04T20:46:46.387Z,52.72
2018-10-04T20:49:15.077Z,52.40
2018-10-04T20:51:43.878Z,53.18
2018-10-04T20:54:12.634Z,52.28
2018-10-04T20:56:41.415Z,53.18
2018-10-04T20:59:10.197Z,53.13
2018-10-04T21:01:38.869Z,53.61
2018-10-04T21:04:07.567Z,52.89
2018-10-04T21:06:36.318Z,53.52
2018-10-04T21:09:06.938Z,53.80
2018-10-04T21:11:35.693Z,52.92
2018-10-04T21:14:04.456Z,52.82
2018-10-04T21:16:33.282Z,54.28
2018-10-04T21:19:02.040Z,54.29
2018-10-04T21:21:30.851Z,53.01
2018-10-04T21:23:59.566Z,54.23
2018-10-04T21:26:28.276Z,53.27
2018-10-04T21:28:56.992Z,53.26
2018-10-04T21:31:25.780Z,53.83
2018-10-04T21:33:54.566Z,53.53
2018-10-04T21:36:23.324Z,54.61
2018-10-04T21:38:52.077Z,54.07
2018-10-04T21:41:20.810Z,53.73
2018-10-04T21:43:49.471Z,53.74
2018-10-04T21:46:18.258Z,54.68
2018-10-04T21:48:47.024Z,53.94
2018-10-04T21:51:15.717Z,54.19
2018-10-04T21:53:44.413Z,54.33
2018-10-04T21:56:13.147Z,54.45
2018-10-04T21:58:42.064Z,54.21
2018-10-04T22:01:10.865Z,54.89
2018-10-04T22:03:39.675Z,55.44
2018-10-04T22:06:08.372Z,55.19
2018-10-04T22:08:37.153Z,55.34
2018-10-04T22:11:05.840Z,55.36
2018-10-04T22:13:34.598Z,55.74
2018-10-04T22:16:03.331Z,55.85
2018-10-04T22:18:32.127Z,56.48
2018-10-04T22:21:00.918Z,56.65
2018-10-04T22:23:29.771Z,57.20
2018-10-04T22:25:58.706Z,57.41
2018-10-04T22:28:27.542Z,57.71
2018-10-04T22:30:56.190Z,58.22
2018-10-04T22:33:24.887Z,58.55
2018-10-04T22:35:53.693Z,58.51
2018-10-04T22:38:22.410Z,58.44
2018-10-04T22:40:51.122Z,58.19
2018-10-04T22:43:19.848Z,58.28
2018-10-04T22:45:48.586Z,58.11
2018-10-04T22:48:17.372Z,58.14
2018-10-04T22:50:46.069Z,58.77
2018-10-04T22:53:15.009Z,59.52
2018-10-04T22:55:43.750Z,59.29
2018-10-04T22:58:12.494Z,60.00
2018-10-04T23:00:41.320Z,60.43
2018-10-04T23:03:10.021Z,61.09
2018-10-04T23:05:38.777Z,61.20
2018-10-04T23:08:07.665Z,61.48
2018-10-04T23:10:36.430Z,61.57
2018-10-04T23:13:05.166Z,61.33
2018-10-04T23:15:33.870Z,61.66
2018-10-04T23:18:02.561Z,61.39
2018-10-04T23:20:31.287Z,61.54
2018-10-04T23:22:59.925Z,62.33
2018-10-04T23:25:28.617Z,62.21
2018-10-04T23:27:57.345Z,61.98
2018-10-04T23:30:26.067Z,61.81
2018-10-04T23:32:54.844Z,62.28
2018-10-04T23:35:23.517Z,63.08
2018-10-04T23:37:52.226Z,63.42
2018-10-04T23:40:20.950Z,64.28
2018-10-04T23:42:49.694Z,64.75
2018-10-04T23:45:18.391Z,65.28
2018-10-04T23:47:47.050Z,66.10
2018-10-04T23:50:15.681Z,67.39
2018-10-04T23:52:44.422Z,67.32
2018-10-04T23:55:13.210Z,67.42
2018-10-04T23:57:41.939Z,66.49
